createdAt,value
2019-06-15T00:01:17.245Z,16.60
2019-06-15T00:03:45.781Z,16.50
2019-06-15T00:06:14.262Z,16.40
2019-06-15T00:08:42.750Z,16.30
2019-06-15T00:11:11.212Z,16.20
2019-06-15T00:13:39.767Z,16.20
2019-06-15T00:16:08.226Z,16.10
2019-06-15T00:18:36.725Z,16.00
2019-06-15T00:21:05.423Z,15.90
2019-06-15T00:23:33.978Z,15.80
2019-06-15T00:26:02.440Z,15.80
2019-06-15T00:28:31.025Z,15.70
2019-06-15T00:30:59.559Z,15.70
2019-06-15T00:33:28.042Z,15.60
2019-06-15T00:35:56.506Z,15.40
2019-06-15T00:38:25.079Z,15.40
2019-06-15T00:40:53.551Z,15.30
2019-06-15T00:43:22.059Z,15.20
2019-06-15T00:45:50.587Z,15.10
2019-06-15T00:48:19.079Z,15.00
2019-06-15T00:50:47.618Z,14.90
2019-06-15T00:53:16.167Z,14.80
2019-06-15T00:55:44.709Z,14.70
2019-06-15T00:58:13.231Z,14.70
2019-06-15T01:00:41.727Z,14.60
2019-06-15T01:03:10.281Z,14.50
2019-06-15T01:05:38.842Z,14.40
2019-06-15T01:08:07.373Z,14.30
2019-06-15T01:10:35.947Z,14.20
2019-06-15T01:13:04.642Z,14.20
2019-06-15T01:15:33.207Z,14.20
2019-06-15T01:18:01.676Z,14.20
2019-06-15T01:20:30.302Z,14.10
2019-06-15T01:22:58.852Z,14.00
2019-06-15T01:25:27.371Z,13.90
2019-06-15T01:27:55.844Z,13.80
2019-06-15T01:30:24.411Z,13.80
2019-06-15T01:32:52.967Z,13.80
2019-06-15T01:35:21.498Z,13.80
2019-06-15T01:37:50.052Z,13.70
2019-06-15T01:40:18.761Z,13.60
2019-06-15T01:42:47.323Z,13.60
2019-06-15T01:45:17.114Z,13.60
2019-06-15T01:47:45.606Z,13.60
2019-06-15T01:50:14.300Z,13.50
2019-06-15T01:52:43.623Z,13.50
2019-06-15T01:55:20.471Z,13.50
2019-06-15T01:57:42.383Z,13.50
2019-06-15T02:00:13.936Z,13.40
2019-06-15T02:02:42.448Z,13.40
2019-06-15T02:05:11.055Z,13.40
2019-06-15T02:07:39.517Z,13.40
2019-06-15T02:10:08.430Z,13.30
2019-06-15T02:12:36.885Z,13.30
2019-06-15T02:15:08.427Z,13.20
2019-06-15T02:17:36.889Z,13.10
2019-06-15T02:20:08.915Z,13.10
2019-06-15T02:22:37.461Z,13.00
2019-06-15T02:25:07.155Z,13.00
2019-06-15T02:27:35.956Z,13.00
2019-06-15T02:30:06.331Z,12.90
2019-06-15T02:32:34.864Z,12.90
2019-06-15T02:35:05.311Z,12.90
2019-06-15T02:37:33.767Z,12.80
2019-06-15T02:40:02.275Z,12.80
2019-06-15T02:42:30.783Z,12.70
2019-06-15T02:44:59.335Z,12.70
2019-06-15T02:47:27.896Z,12.60
2019-06-15T02:49:56.378Z,12.60
2019-06-15T02:52:24.908Z,12.60
2019-06-15T02:54:53.383Z,12.60
2019-06-15T02:57:21.843Z,12.60
2019-06-15T02:59:50.326Z,12.70
2019-06-15T03:02:18.963Z,12.60
2019-06-15T03:04:47.524Z,12.50
2019-06-15T03:07:16.155Z,12.50
2019-06-15T03:09:44.703Z,12.50
2019-06-15T03:12:13.446Z,12.40
2019-06-15T03:14:41.999Z,12.40
2019-06-15T03:17:10.473Z,12.30
2019-06-15T03:19:39.046Z,12.50
2019-06-15T03:22:07.589Z,12.40
2019-06-15T03:24:37.043Z,12.40
2019-06-15T03:27:05.595Z,12.50
2019-06-15T03:29:34.154Z,12.40
2019-06-15T03:32:02.702Z,12.40
2019-06-15T03:34:31.267Z,12.40
2019-06-15T03:36:59.726Z,12.50
2019-06-15T03:39:28.193Z,12.50
2019-06-15T03:41:56.652Z,12.60
2019-06-15T03:44:25.160Z,12.60
2019-06-15T03:46:53.699Z,12.60
2019-06-15T03:49:22.174Z,12.60
2019-06-15T03:51:50.659Z,12.70
2019-06-15T03:54:19.222Z,12.90
2019-06-15T03:56:47.777Z,13.00
2019-06-15T03:59:16.327Z,13.10
2019-06-15T04:01:50.969Z,13.30
2019-06-15T04:04:19.613Z,13.40
2019-06-15T04:06:48.159Z,13.60
2019-06-15T04:09:17.769Z,13.80
2019-06-15T04:11:46.302Z,13.90
2019-06-15T04:14:14.764Z,14.00
2019-06-15T04:16:43.260Z,14.10
2019-06-15T04:19:11.807Z,14.20
2019-06-15T04:21:40.266Z,14.30
2019-06-15T04:24:08.755Z,14.40
2019-06-15T04:26:37.292Z,14.50
2019-06-15T04:29:05.884Z,14.70
2019-06-15T04:31:34.344Z,14.80
2019-06-15T04:34:02.982Z,14.90
2019-06-15T04:36:31.556Z,15.00
2019-06-15T04:39:00.363Z,15.00
2019-06-15T04:41:28.862Z,15.10
2019-06-15T04:43:57.343Z,15.10
2019-06-15T04:46:25.818Z,15.20
2019-06-15T04:48:54.311Z,15.40
2019-06-15T04:51:22.780Z,15.50
2019-06-15T04:53:51.260Z,15.60
2019-06-15T04:56:19.740Z,15.70
2019-06-15T04:58:48.279Z,15.80
2019-06-15T05:01:16.819Z,15.90
2019-06-15T05:03:45.287Z,16.10
2019-06-15T05:06:13.758Z,16.30
2019-06-15T05:08:42.219Z,16.40
2019-06-15T05:11:10.683Z,16.60
2019-06-15T05:13:39.247Z,16.80
2019-06-15T05:16:07.760Z,17.10
2019-06-15T05:18:36.242Z,17.30
2019-06-15T05:21:04.777Z,17.50
2019-06-15T05:23:33.237Z,17.80
2019-06-15T05:26:01.724Z,18.00
2019-06-15T05:28:30.277Z,18.10
2019-06-15T05:30:58.834Z,18.30
2019-06-15T05:33:27.294Z,18.40
2019-06-15T05:35:55.776Z,18.50
2019-06-15T05:38:24.314Z,18.60
2019-06-15T05:40:52.812Z,18.60
2019-06-15T05:43:21.371Z,18.60
2019-06-15T05:45:49.932Z,18.50
2019-06-15T05:48:18.476Z,18.30
2019-06-15T05:50:47.030Z,18.00
2019-06-15T05:53:15.563Z,18.00
2019-06-15T05:55:44.095Z,18.10
2019-06-15T05:58:12.577Z,18.20
2019-06-15T06:00:41.047Z,18.30
2019-06-15T06:03:09.712Z,18.40
2019-06-15T06:05:38.402Z,18.50
2019-06-15T06:08:07.027Z,18.60
2019-06-15T06:10:35.586Z,18.80
2019-06-15T06:13:04.200Z,19.00
2019-06-15T06:15:33.055Z,19.10
2019-06-15T06:18:01.601Z,19.20
2019-06-15T06:20:30.160Z,19.30
2019-06-15T06:22:58.675Z,19.30
2019-06-15T06:25:27.303Z,19.30
2019-06-15T06:27:55.883Z,19.20
2019-06-15T06:30:24.355Z,19.20
2019-06-15T06:32:53.244Z,19.10
2019-06-15T06:35:21.793Z,19.10
2019-06-15T06:37:50.278Z,19.10
2019-06-15T06:40:19.052Z,19.10
2019-06-15T06:42:47.616Z,19.00
2019-06-15T06:45:16.412Z,19.00
2019-06-15T06:47:44.942Z,19.10
2019-06-15T06:50:13.972Z,19.10
2019-06-15T06:52:42.504Z,19.20
2019-06-15T06:55:11.414Z,19.20
2019-06-15T06:57:51.910Z,19.10
2019-06-15T07:00:11.265Z,19.20
2019-06-15T07:02:39.818Z,19.30
2019-06-15T07:05:08.450Z,19.40
2019-06-15T07:07:37.053Z,19.40
2019-06-15T07:10:07.047Z,19.50
2019-06-15T07:12:35.616Z,19.40
2019-06-15T07:15:05.207Z,19.10
2019-06-15T07:17:33.789Z,19.20
2019-06-15T07:20:02.560Z,19.50
2019-06-15T07:22:31.061Z,19.60
2019-06-15T07:24:59.523Z,19.50
2019-06-15T07:27:27.993Z,19.20
2019-06-15T07:29:56.533Z,18.80
2019-06-15T07:32:25.010Z,18.60
2019-06-15T07:34:53.556Z,18.50
2019-06-15T07:37:22.155Z,18.70
2019-06-15T07:39:50.654Z,18.70
2019-06-15T07:42:19.243Z,18.60
2019-06-15T07:44:47.775Z,18.50
2019-06-15T07:47:16.305Z,18.50
2019-06-15T07:49:44.787Z,18.50
2019-06-15T07:52:13.361Z,18.40
2019-06-15T07:54:41.883Z,18.30
2019-06-15T07:57:10.367Z,18.10
2019-06-15T07:59:38.904Z,18.20
2019-06-15T08:02:08.091Z,18.10
2019-06-15T08:04:36.576Z,18.20
2019-06-15T08:07:05.961Z,18.10
2019-06-15T08:09:34.491Z,18.40
2019-06-15T08:12:02.972Z,18.60
2019-06-15T08:14:31.513Z,18.90
2019-06-15T08:17:00.030Z,19.00
2019-06-15T08:19:28.568Z,19.10
2019-06-15T08:21:57.114Z,18.60
2019-06-15T08:24:25.608Z,18.20
2019-06-15T08:26:54.107Z,18.10
2019-06-15T08:29:22.638Z,18.40
2019-06-15T08:31:51.123Z,18.70
2019-06-15T08:34:19.701Z,19.10
2019-06-15T08:36:48.248Z,19.60
2019-06-15T08:39:16.783Z,19.90
2019-06-15T08:41:45.338Z,20.10
2019-06-15T08:44:14.160Z,20.00
2019-06-15T08:46:42.619Z,20.20
2019-06-15T08:49:11.428Z,20.70
2019-06-15T08:51:39.984Z,21.10
2019-06-15T08:54:08.575Z,21.70
2019-06-15T08:56:37.066Z,21.50
2019-06-15T08:59:05.575Z,21.00
2019-06-15T09:01:34.094Z,20.70
2019-06-15T09:04:02.579Z,20.30
2019-06-15T09:06:31.067Z,20.30
2019-06-15T09:08:59.644Z,20.30
2019-06-15T09:11:28.352Z,20.40
2019-06-15T09:13:56.824Z,20.40
2019-06-15T09:16:25.916Z,20.80
2019-06-15T09:18:56.744Z,21.00
2019-06-15T09:21:24.767Z,20.80
2019-06-15T09:23:53.332Z,20.40
2019-06-15T09:26:21.903Z,20.20
2019-06-15T09:28:50.447Z,20.30
2019-06-15T09:31:19.022Z,20.50
2019-06-15T09:33:47.583Z,20.50
2019-06-15T09:36:16.154Z,20.80
2019-06-15T09:38:44.697Z,21.40
2019-06-15T09:41:13.532Z,21.40
2019-06-15T09:43:42.059Z,21.60
2019-06-15T09:46:10.543Z,21.90
2019-06-15T09:48:39.031Z,21.80
2019-06-15T09:51:07.588Z,21.50
2019-06-15T09:53:36.128Z,21.20
2019-06-15T09:56:04.776Z,20.90
2019-06-15T09:58:33.308Z,21.00
2019-06-15T10:01:01.896Z,20.90
2019-06-15T10:03:30.470Z,20.80
2019-06-15T10:05:58.965Z,20.70
2019-06-15T10:08:27.447Z,21.00
2019-06-15T10:10:55.978Z,21.20
2019-06-15T10:13:24.463Z,21.40
2019-06-15T10:15:52.938Z,21.50
2019-06-15T10:18:21.424Z,21.80
2019-06-15T10:20:49.894Z,21.90
2019-06-15T10:23:18.377Z,21.90
2019-06-15T10:25:46.841Z,21.80
2019-06-15T10:28:15.470Z,21.40
2019-06-15T10:30:44.007Z,21.20
2019-06-15T10:33:12.499Z,21.20
2019-06-15T10:35:40.986Z,21.20
2019-06-15T10:38:09.530Z,21.30
2019-06-15T10:40:38.028Z,21.20
2019-06-15T10:43:06.687Z,21.30
2019-06-15T10:45:35.303Z,21.10
2019-06-15T10:48:03.767Z,21.30
2019-06-15T10:50:32.256Z,21.40
2019-06-15T10:53:00.744Z,21.80
2019-06-15T10:55:29.316Z,22.40
2019-06-15T10:57:57.856Z,22.80
2019-06-15T11:00:26.743Z,22.90
2019-06-15T11:02:55.292Z,23.10
2019-06-15T11:05:23.959Z,23.10
2019-06-15T11:07:52.512Z,23.20
2019-06-15T11:10:26.774Z,23.30
2019-06-15T11:12:55.748Z,22.80
2019-06-15T11:15:24.978Z,22.10
2019-06-15T11:17:53.448Z,22.10
2019-06-15T11:20:22.060Z,22.50
2019-06-15T11:22:50.561Z,22.90
2019-06-15T11:25:19.098Z,22.50
2019-06-15T11:27:47.676Z,22.20
2019-06-15T11:30:16.272Z,21.70
2019-06-15T11:32:44.768Z,21.10
2019-06-15T11:35:13.547Z,20.70
2019-06-15T11:37:42.031Z,20.70
2019-06-15T11:40:10.755Z,21.10
2019-06-15T11:42:39.247Z,21.00
2019-06-15T11:45:08.048Z,21.00
2019-06-15T11:47:36.854Z,21.20
2019-06-15T11:50:06.148Z,21.50
2019-06-15T11:52:34.697Z,21.90
2019-06-15T11:55:04.440Z,21.90
2019-06-15T11:57:32.968Z,22.00
2019-06-15T12:00:01.471Z,22.30
2019-06-15T12:02:30.051Z,22.40
2019-06-15T12:04:58.950Z,22.80
2019-06-15T12:07:27.555Z,22.40
2019-06-15T12:09:56.103Z,22.50
2019-06-15T12:12:24.742Z,22.20
2019-06-15T12:14:53.284Z,21.80
2019-06-15T12:17:21.856Z,21.40
2019-06-15T12:19:50.320Z,21.60
2019-06-15T12:22:18.874Z,21.70
2019-06-15T12:24:47.424Z,21.40
2019-06-15T12:27:15.980Z,21.40
2019-06-15T12:29:44.442Z,21.90
2019-06-15T12:32:13.007Z,22.10
2019-06-15T12:34:41.548Z,22.10
2019-06-15T12:37:10.245Z,22.60
2019-06-15T12:39:41.897Z,22.50
2019-06-15T12:42:08.968Z,22.30
2019-06-15T12:44:37.519Z,22.20
2019-06-15T12:47:05.978Z,22.60
2019-06-15T12:49:34.515Z,22.10
2019-06-15T12:52:02.974Z,22.30
2019-06-15T12:54:31.461Z,22.30
2019-06-15T12:56:59.995Z,22.30
2019-06-15T12:59:28.530Z,22.00
2019-06-15T13:01:57.010Z,21.60
2019-06-15T13:04:25.601Z,21.90
2019-06-15T13:06:54.074Z,21.70
2019-06-15T13:09:22.567Z,21.40
2019-06-15T13:11:51.045Z,21.00
2019-06-15T13:14:19.679Z,20.60
2019-06-15T13:16:48.262Z,20.50
2019-06-15T13:19:16.811Z,20.30
2019-06-15T13:21:45.418Z,20.30
2019-06-15T13:24:13.940Z,21.10
2019-06-15T13:26:42.423Z,22.20
2019-06-15T13:29:10.959Z,22.10
2019-06-15T13:31:39.478Z,21.90
2019-06-15T13:34:08.119Z,21.60
2019-06-15T13:36:36.669Z,21.80
2019-06-15T13:53:09.418Z,20.90
2019-06-15T13:55:37.870Z,20.80
2019-06-15T13:58:06.463Z,20.60
2019-06-15T14:00:35.000Z,20.40
2019-06-15T14:03:03.538Z,20.40
2019-06-15T14:05:32.175Z,20.80
2019-06-15T14:08:00.751Z,21.90
2019-06-15T14:10:29.318Z,23.00
2019-06-15T14:12:57.847Z,24.00
2019-06-15T14:15:26.335Z,24.50
2019-06-15T14:17:54.895Z,24.40
2019-06-15T14:20:23.462Z,23.60
2019-06-15T14:22:52.075Z,22.90
2019-06-15T14:25:20.565Z,22.10
2019-06-15T14:27:49.095Z,21.70
2019-06-15T14:30:18.673Z,21.50
2019-06-15T14:32:47.277Z,21.30
2019-06-15T14:35:16.232Z,21.80
2019-06-15T14:37:44.791Z,22.00
2019-06-15T14:40:14.614Z,22.60
2019-06-15T14:42:43.085Z,23.50
2019-06-15T14:45:12.016Z,24.10
2019-06-15T14:47:40.567Z,25.40
2019-06-15T14:50:09.742Z,25.80
2019-06-15T14:52:38.258Z,24.90
2019-06-15T14:55:07.395Z,24.10
2019-06-15T14:57:36.219Z,23.90
2019-06-15T15:00:08.682Z,23.30
2019-06-15T15:02:37.251Z,23.00
2019-06-15T15:05:09.346Z,22.30
2019-06-15T15:07:37.975Z,22.00
2019-06-15T15:10:08.180Z,21.90
2019-06-15T15:12:37.061Z,21.50
2019-06-15T15:15:08.239Z,22.10
2019-06-15T15:17:37.216Z,21.80
2019-06-15T15:20:08.039Z,21.90
2019-06-15T15:22:37.117Z,23.10
2019-06-15T15:25:06.900Z,23.80
2019-06-15T15:27:37.376Z,23.30
2019-06-15T15:30:09.423Z,23.40
2019-06-15T15:32:37.987Z,23.40
2019-06-15T15:35:06.999Z,23.00
2019-06-15T15:37:37.162Z,22.80
2019-06-15T15:40:07.358Z,22.50
2019-06-15T15:42:37.077Z,23.10
2019-06-15T15:45:07.406Z,23.80
2019-06-15T15:47:36.271Z,23.60
2019-06-15T15:50:09.456Z,23.00
2019-06-15T15:52:38.005Z,22.40
2019-06-15T15:55:11.249Z,21.90
2019-06-15T15:57:39.846Z,21.50
2019-06-15T16:00:08.903Z,21.50
2019-06-15T16:02:48.200Z,21.90
2019-06-15T16:05:07.780Z,22.00
2019-06-15T16:07:36.507Z,21.80
2019-06-15T16:10:06.302Z,21.50
2019-06-15T16:12:36.199Z,21.20
2019-06-15T16:15:07.226Z,21.50
2019-06-15T16:17:37.331Z,22.50
2019-06-15T16:20:09.096Z,23.10
2019-06-15T16:22:37.679Z,23.30
2019-06-15T16:25:06.798Z,22.90
2019-06-15T16:27:37.033Z,22.80
2019-06-15T16:30:08.657Z,23.00
2019-06-15T16:32:37.436Z,23.40
2019-06-15T16:35:07.096Z,23.50
2019-06-15T16:37:35.828Z,23.60
2019-06-15T16:40:08.359Z,24.60
2019-06-15T16:42:36.896Z,25.10
2019-06-15T16:45:06.839Z,25.30
2019-06-15T16:47:36.398Z,25.90
2019-06-15T16:50:08.690Z,26.20
2019-06-15T16:52:37.170Z,26.20
2019-06-15T16:55:10.829Z,25.90
2019-06-15T16:57:37.677Z,25.20
2019-06-15T17:00:21.684Z,24.60
2019-06-15T17:02:50.678Z,23.90
2019-06-15T17:05:19.667Z,23.90
2019-06-15T17:07:48.340Z,23.50
2019-06-15T17:10:19.916Z,22.70
2019-06-15T17:12:48.534Z,21.60
2019-06-15T17:15:17.226Z,21.10
2019-06-15T17:17:46.127Z,21.00
2019-06-15T17:20:16.407Z,21.00
2019-06-15T17:22:47.241Z,21.40
2019-06-15T17:25:16.640Z,21.90
2019-06-15T17:27:46.962Z,21.80
2019-06-15T17:30:17.176Z,22.10
2019-06-15T17:32:45.898Z,21.90
2019-06-15T17:35:16.776Z,21.90
2019-06-15T17:37:46.985Z,21.10
2019-06-15T17:40:16.255Z,20.60
2019-06-15T17:42:44.842Z,20.80
2019-06-15T17:45:16.006Z,21.50
2019-06-15T17:47:43.786Z,21.40
2019-06-15T17:50:16.942Z,21.20
2019-06-15T17:52:46.837Z,21.70
2019-06-15T17:55:17.691Z,22.00
2019-06-15T17:57:46.497Z,22.30
2019-06-15T18:00:16.593Z,22.70
2019-06-15T18:02:45.281Z,22.50
2019-06-15T18:05:13.813Z,22.80
2019-06-15T18:07:42.305Z,23.10
2019-06-15T18:10:11.320Z,23.10
2019-06-15T18:12:39.822Z,22.70
2019-06-15T18:15:09.894Z,23.00
2019-06-15T18:17:38.397Z,23.20
2019-06-15T18:20:07.096Z,23.60
2019-06-15T18:22:36.244Z,23.90
2019-06-15T18:25:06.635Z,23.40
2019-06-15T18:27:37.233Z,23.00
2019-06-15T18:30:06.785Z,22.50
2019-06-15T18:32:37.892Z,22.20
2019-06-15T18:35:06.643Z,21.80
2019-06-15T18:37:37.064Z,21.20
2019-06-15T18:40:07.137Z,20.30
2019-06-15T18:42:36.914Z,19.60
2019-06-15T18:45:09.438Z,18.90
2019-06-15T18:47:37.977Z,18.50
2019-06-15T18:50:10.218Z,18.10
2019-06-15T18:52:38.779Z,17.90
2019-06-15T18:55:08.059Z,17.70
2019-06-15T18:57:37.377Z,17.50
2019-06-15T19:00:08.519Z,17.50
2019-06-15T19:02:36.993Z,17.30
2019-06-15T19:05:08.713Z,17.00
2019-06-15T19:07:37.888Z,16.80
2019-06-15T19:10:07.288Z,16.70
2019-06-15T19:12:35.867Z,16.50
2019-06-15T19:15:07.300Z,16.50
2019-06-15T19:17:37.091Z,16.40
2019-06-15T19:20:06.388Z,16.30
2019-06-15T19:22:34.952Z,16.20
2019-06-15T19:25:04.266Z,16.10
2019-06-15T19:27:32.758Z,15.90
2019-06-15T19:30:01.287Z,15.70
2019-06-15T19:32:29.852Z,15.50
2019-06-15T19:34:58.372Z,15.30
2019-06-15T19:37:26.972Z,15.20
2019-06-15T19:39:56.512Z,15.00
2019-06-15T19:42:26.001Z,14.90
2019-06-15T19:44:56.219Z,14.80
2019-06-15T19:47:26.502Z,14.60
2019-06-15T19:49:56.846Z,14.50
2019-06-15T19:52:25.488Z,14.40
2019-06-15T19:54:54.018Z,14.30
2019-06-15T19:57:22.592Z,14.20
2019-06-15T19:59:51.150Z,14.10
2019-06-15T20:02:19.671Z,14.10
2019-06-15T20:04:59.223Z,14.10
2019-06-15T20:07:18.450Z,14.00
2019-06-15T20:09:46.920Z,13.90
2019-06-15T20:12:21.511Z,13.80
2019-06-15T20:14:46.273Z,13.70
2019-06-15T20:17:17.375Z,13.70
2019-06-15T20:19:46.504Z,13.60
2019-06-15T20:22:17.117Z,13.50
2019-06-15T20:24:47.348Z,13.40
2019-06-15T20:27:16.420Z,13.20
2019-06-15T20:29:47.464Z,13.10
2019-06-15T20:32:17.374Z,13.00
2019-06-15T20:34:46.289Z,12.90
2019-06-15T20:37:16.848Z,12.80
2019-06-15T20:39:46.775Z,12.80
2019-06-15T20:42:16.415Z,12.70
2019-06-15T20:44:46.195Z,12.60
2019-06-15T20:47:14.908Z,12.50
2019-06-15T20:49:43.449Z,12.50
2019-06-15T20:52:11.987Z,12.40
2019-06-15T20:54:40.469Z,12.30
2019-06-15T20:57:09.009Z,12.10
2019-06-15T20:59:37.537Z,12.10
2019-06-15T21:02:06.779Z,12.00
2019-06-15T21:04:36.336Z,11.90
2019-06-15T21:07:06.606Z,11.80
2019-06-15T21:09:36.414Z,11.80
2019-06-15T21:12:06.664Z,11.70
2019-06-15T21:14:36.633Z,11.90
2019-06-15T21:17:06.784Z,11.90
2019-06-15T21:19:36.152Z,11.80
2019-06-15T21:22:06.338Z,11.80
2019-06-15T21:24:37.062Z,11.70
2019-06-15T21:27:06.189Z,11.60
2019-06-15T21:29:37.041Z,11.50
2019-06-15T21:32:05.149Z,11.50
2019-06-15T21:34:36.042Z,11.50
2019-06-15T21:37:06.307Z,11.40
2019-06-15T21:39:36.307Z,11.30
2019-06-15T21:42:04.435Z,11.30
2019-06-15T21:44:32.968Z,11.30
2019-06-15T21:47:01.712Z,11.20
2019-06-15T21:49:30.428Z,11.10
2019-06-15T21:52:01.675Z,11.00
2019-06-15T21:54:35.912Z,11.00
2019-06-15T21:57:12.683Z,11.10
2019-06-15T21:59:42.010Z,11.10
2019-06-15T22:02:26.642Z,11.10
2019-06-15T22:04:56.871Z,11.10
2019-06-15T22:07:26.126Z,10.90
2019-06-15T22:09:54.751Z,10.90
2019-06-15T22:12:23.430Z,10.70
2019-06-15T22:14:53.451Z,10.70
2019-06-15T22:17:22.039Z,10.70
2019-06-15T22:19:51.394Z,10.70
2019-06-15T22:22:20.314Z,10.70
2019-06-15T22:24:50.356Z,10.70
2019-06-15T22:27:18.855Z,10.70
2019-06-15T22:29:47.480Z,10.70
2019-06-15T22:32:16.607Z,10.60
2019-06-15T22:34:47.134Z,10.50
2019-06-15T22:37:17.352Z,10.30
2019-06-15T22:39:46.673Z,10.30
2019-06-15T22:42:16.802Z,10.30
2019-06-15T22:44:46.449Z,10.40
2019-06-15T22:47:16.797Z,10.50
2019-06-15T22:49:46.808Z,10.60
2019-06-15T22:52:17.119Z,10.60
2019-06-15T22:54:46.536Z,10.60
2019-06-15T22:57:16.711Z,10.60
2019-06-15T22:59:46.150Z,10.60
2019-06-15T23:02:16.747Z,10.60
2019-06-15T23:04:47.086Z,10.60
2019-06-15T23:07:16.123Z,10.50
2019-06-15T23:09:46.762Z,10.40
2019-06-15T23:12:14.906Z,10.30
2019-06-15T23:14:43.384Z,10.30
2019-06-15T23:17:11.865Z,10.30
2019-06-15T23:19:40.395Z,10.20
2019-06-15T23:22:08.862Z,10.10
2019-06-15T23:24:37.345Z,10.10
2019-06-15T23:27:06.828Z,10.00
2019-06-15T23:29:36.779Z,10.00
2019-06-15T23:32:06.270Z,10.00
2019-06-15T23:34:34.931Z,10.00
2019-06-15T23:37:06.686Z,10.10
2019-06-15T23:39:36.129Z,10.10
2019-06-15T23:42:06.165Z,10.00
2019-06-15T23:44:36.109Z,9.90
2019-06-15T23:47:04.785Z,9.90
2019-06-15T23:49:33.362Z,9.80
2019-06-15T23:52:01.895Z,10.00
2019-06-15T23:54:30.423Z,9.90
2019-06-15T23:56:58.959Z,10.00
2019-06-15T23:59:27.433Z,9.90
